Aérodrome :
LOGIN :

S'inscrire | Disclaimer

   EN    FR    IT 

 










Légende :    VFR   VFR Marginal   IFR   IFR Intensif   IFR Très Intensif
Visi : 
Plafond : 
>= 8 km
>= 3000ft
5 à 8 km
1000 à 3000 ft
1500m à 5 km
500 à 1000 ft
800 à 1500m
200 à 500 ft
< 800m
< 200 ft
Symboles :   Orages  Brouillard  Fortes neiges  Fortes précipitations  Vent > 20 kt
SIGMETs :   Divers  Orages  Givrage  Turbulence  Onde Orograph.  Cendres Volcan.







- Altitude de l'aérodrome : 392 ft
- Code IATA : CDG
- Voir les cartes d'approche


LFPG - Paris-Aeroport Charles De Gaulle

DERNIER METAR :
  • 221100Z 19008KT 0800 R27L/1300D R09R/1100D R26R/1400D R08L/1300D R26L/1600D R08R/1300D R27R/1400D R09L/1200D -SN SCT004 BKN005 M00/M01 Q1007 TEMPO 0800 SN R27R/590350 R27L/590350

METARs EXPIRÉS :
  • 221030Z 19009KT 1000 R27L/1500U R09R/1600U R26R/1500D R08L/1600N R26L/1700D R08R/1300D R27R/1500D R09L/1600N -SN OVC004 M00/M01 Q1007 TEMPO 0800 SN R27R/590350 R27L/590350
  • 221000Z 19010KT 1000 R27L/1700N R09R/1600D R26R/1500D R08L/1400N R26L/1800U R08R/1400D R27R/1600U R09L/1500U -SN OVC004 M01/M01 Q1007 TEMPO 0800 SN OVC003 R27R/590350 R27L/590350
  • 220930Z 19012KT 0800 R27L/1200D R09R/1600U R26R/1200U R08L/1400D R26L/1500U R08R/1200D R27R/1300U R09L/1500U -SN OVC004 M01/M02 Q1007 TEMPO 800 SN OVC003
  • 220900Z 18011KT 0800 R27L/1400D R09R/1400D R26R/1300D R08L/1300D R26L/1600N R08R/1200D R27R/1500D R09L/1400N SN FG BKN005 M01/M02 Q1008 TEMPO 800 SN BKN003
  • 220830Z 18011KT 1500 -SN BR BKN005 BKN007 M01/M02 Q1008 TEMPO 800 SN BKN003

TAF AMD TAF LFPG
Valide du 22 à 07h jusqu'au 23 à 12h UTC


220744Z 2207/2312 18010KT 3000 -SN BKN007 TX02/2215Z TNM01/2207Z
PROB40
TEMPO 2208/2210 0800 SN BKN003
BECMG 2212/2214 6000 NSW BKN012
BECMG 2216/2218 BKN006
PROB40
TEMPO 2221/2309 1500 -SHSN BKN004 SCT010TCU
ATIS : +33 1 48 62 10 92
Pas de NOTAMs connus pour ce terrain.



MET'MAP, la Météo Aéronautique d'un coup d'oeil ! - Copyright ORBIFLY Décembre 2007 - Disclaimer

ORBIFLY MET'MAP TEAM :

Programmation & Développement : Alexandra Zaïnal
Conception & Développement : Baudouin d'Aumeries
Co-Programmation & Développement : Marc-Olivier Méhu
Soutien technique & logistique : Manuel Goepfert

Contact : metmap@orbifly.com




SOURCES & CREDITS :

   NOAA